sensor_id;sensor_type;location;lat;lon;timestamp;temperature;humidity
53599;DHT22;39485;45.702;11.364;2023-02-27T00:01:07;4.30;95.70
53599;DHT22;39485;45.702;11.364;2023-02-27T00:03:33;4.30;95.90
53599;DHT22;39485;45.702;11.364;2023-02-27T00:05:58;4.30;96.10
53599;DHT22;39485;45.702;11.364;2023-02-27T00:08:24;4.30;96.20
53599;DHT22;39485;45.702;11.364;2023-02-27T00:10:50;4.20;96.50
53599;DHT22;39485;45.702;11.364;2023-02-27T00:13:16;4.30;96.60
53599;DHT22;39485;45.702;11.364;2023-02-27T00:15:45;4.20;96.60
53599;DHT22;39485;45.702;11.364;2023-02-27T00:18:11;4.30;96.90
53599;DHT22;39485;45.702;11.364;2023-02-27T00:20:36;4.20;97.00
53599;DHT22;39485;45.702;11.364;2023-02-27T00:23:06;4.30;97.00
53599;DHT22;39485;45.702;11.364;2023-02-27T00:25:33;4.20;97.10
53599;DHT22;39485;45.702;11.364;2023-02-27T00:27:59;4.20;97.40
53599;DHT22;39485;45.702;11.364;2023-02-27T00:30:25;4.20;97.60
53599;DHT22;39485;45.702;11.364;2023-02-27T00:32:52;4.20;97.90
53599;DHT22;39485;45.702;11.364;2023-02-27T00:35:18;4.20;98.20
53599;DHT22;39485;45.702;11.364;2023-02-27T00:37:43;4.20;98.40
53599;DHT22;39485;45.702;11.364;2023-02-27T00:40:10;4.10;98.70
53599;DHT22;39485;45.702;11.364;2023-02-27T00:42:36;4.10;99.00
53599;DHT22;39485;45.702;11.364;2023-02-27T00:45:03;4.10;99.30
53599;DHT22;39485;45.702;11.364;2023-02-27T00:47:28;4.10;99.60
53599;DHT22;39485;45.702;11.364;2023-02-27T00:49:54;4.10;99.90
53599;DHT22;39485;45.702;11.364;2023-02-27T00:52:20;4.10;99.90
53599;DHT22;39485;45.702;11.364;2023-02-27T00:54:45;4.10;99.90
53599;DHT22;39485;45.702;11.364;2023-02-27T00:57:11;4.10;99.90
53599;DHT22;39485;45.702;11.364;2023-02-27T00:59:37;4.10;99.90
53599;DHT22;39485;45.702;11.364;2023-02-27T01:02:03;4.10;99.90
53599;DHT22;39485;45.702;11.364;2023-02-27T01:04:28;4.10;99.90
53599;DHT22;39485;45.702;11.364;2023-02-27T01:06:54;4.00;99.90
53599;DHT22;39485;45.702;11.364;2023-02-27T01:09:20;4.00;99.90
53599;DHT22;39485;45.702;11.364;2023-02-27T01:11:45;4.00;99.90
53599;DHT22;39485;45.702;11.364;2023-02-27T01:14:11;4.10;99.90
53599;DHT22;39485;45.702;11.364;2023-02-27T01:16:37;4.10;99.90
53599;DHT22;39485;45.702;11.364;2023-02-27T01:19:02;4.10;99.90
53599;DHT22;39485;45.702;11.364;2023-02-27T01:21:28;4.00;99.90
53599;DHT22;39485;45.702;11.364;2023-02-27T01:23:54;4.10;99.90
53599;DHT22;39485;45.702;11.364;2023-02-27T01:26:20;4.10;99.90
53599;DHT22;39485;45.702;11.364;2023-02-27T01:28:45;4.10;99.90
53599;DHT22;39485;45.702;11.364;2023-02-27T01:31:11;4.10;99.90
53599;DHT22;39485;45.702;11.364;2023-02-27T01:33:37;4.10;99.90
53599;DHT22;39485;45.702;11.364;2023-02-27T01:36:02;4.10;99.90
53599;DHT22;39485;45.702;11.364;2023-02-27T01:38:28;4.10;99.90
53599;DHT22;39485;45.702;11.364;2023-02-27T01:40:54;4.10;99.90
53599;DHT22;39485;45.702;11.364;2023-02-27T01:43:22;4.20;99.90
53599;DHT22;39485;45.702;11.364;2023-02-27T01:45:48;4.20;99.90
53599;DHT22;39485;45.702;11.364;2023-02-27T01:48:19;4.20;99.90
53599;DHT22;39485;45.702;11.364;2023-02-27T01:50:49;4.20;99.70
53599;DHT22;39485;45.702;11.364;2023-02-27T01:53:16;4.20;99.20
53599;DHT22;39485;45.702;11.364;2023-02-27T01:55:43;4.20;99.00
53599;DHT22;39485;45.702;11.364;2023-02-27T01:58:10;4.30;98.60
53599;DHT22;39485;45.702;11.364;2023-02-27T02:00:37;4.30;98.30
53599;DHT22;39485;45.702;11.364;2023-02-27T02:05:56;4.30;97.30
53599;DHT22;39485;45.702;11.364;2023-02-27T02:08:24;4.40;97.10
53599;DHT22;39485;45.702;11.364;2023-02-27T02:10:52;4.40;96.90
53599;DHT22;39485;45.702;11.364;2023-02-27T02:13:20;4.50;96.70
53599;DHT22;39485;45.702;11.364;2023-02-27T02:16:14;4.40;96.60
53599;DHT22;39485;45.702;11.364;2023-02-27T02:19:14;4.50;96.40
53599;DHT22;39485;45.702;11.364;2023-02-27T02:25:30;4.50;95.70
53599;DHT22;39485;45.702;11.364;2023-02-27T02:47:43;4.50;96.00
53599;DHT22;39485;45.702;11.364;2023-02-27T02:50:11;4.40;96.10
53599;DHT22;39485;45.702;11.364;2023-02-27T02:55:44;4.40;96.40
53599;DHT22;39485;45.702;11.364;2023-02-27T02:58:13;4.40;96.70
53599;DHT22;39485;45.702;11.364;2023-02-27T03:01:02;4.40;96.40
53599;DHT22;39485;45.702;11.364;2023-02-27T03:03:43;4.40;96.50
53599;DHT22;39485;45.702;11.364;2023-02-27T03:06:23;4.40;96.20
53599;DHT22;39485;45.702;11.364;2023-02-27T03:08:58;4.30;96.30
53599;DHT22;39485;45.702;11.364;2023-02-27T03:11:28;4.30;96.40
53599;DHT22;39485;45.702;11.364;2023-02-27T03:14:12;4.30;96.50
53599;DHT22;39485;45.702;11.364;2023-02-27T03:16:44;4.30;96.70
53599;DHT22;39485;45.702;11.364;2023-02-27T03:19:45;4.30;96.70
53599;DHT22;39485;45.702;11.364;2023-02-27T03:22:17;4.30;96.80
53599;DHT22;39485;45.702;11.364;2023-02-27T03:24:47;4.30;96.90
53599;DHT22;39485;45.702;11.364;2023-02-27T03:27:15;4.30;97.00
53599;DHT22;39485;45.702;11.364;2023-02-27T03:29:48;4.30;97.10
53599;DHT22;39485;45.702;11.364;2023-02-27T03:33:00;4.30;97.30
53599;DHT22;39485;45.702;11.364;2023-02-27T03:35:16;4.30;97.60
53599;DHT22;39485;45.702;11.364;2023-02-27T03:43:22;4.20;98.10
53599;DHT22;39485;45.702;11.364;2023-02-27T03:46:09;4.30;98.40
53599;DHT22;39485;45.702;11.364;2023-02-27T03:48:36;4.20;98.70
53599;DHT22;39485;45.702;11.364;2023-02-27T03:51:03;4.30;98.90
53599;DHT22;39485;45.702;11.364;2023-02-27T03:53:35;4.30;99.30
53599;DHT22;39485;45.702;11.364;2023-02-27T03:56:05;4.30;99.70
53599;DHT22;39485;45.702;11.364;2023-02-27T03:58:32;4.30;99.90
53599;DHT22;39485;45.702;11.364;2023-02-27T04:00:58;4.30;99.90
53599;DHT22;39485;45.702;11.364;2023-02-27T04:03:24;4.30;99.90
53599;DHT22;39485;45.702;11.364;2023-02-27T04:05:51;4.30;99.90
53599;DHT22;39485;45.702;11.364;2023-02-27T04:08:30;4.30;99.90
53599;DHT22;39485;45.702;11.364;2023-02-27T04:14:22;4.20;99.90
53599;DHT22;39485;45.702;11.364;2023-02-27T04:35:35;4.20;99.90
53599;DHT22;39485;45.702;11.364;2023-02-27T04:38:19;4.20;99.90
53599;DHT22;39485;45.702;11.364;2023-02-27T04:41:15;4.20;99.90
53599;DHT22;39485;45.702;11.364;2023-02-27T04:43:44;4.20;99.30
53599;DHT22;39485;45.702;11.364;2023-02-27T04:46:13;4.20;99.50
53599;DHT22;39485;45.702;11.364;2023-02-27T04:49:02;4.20;99.70
53599;DHT22;39485;45.702;11.364;2023-02-27T04:51:35;4.20;99.60
53599;DHT22;39485;45.702;11.364;2023-02-27T04:56:33;4.20;99.70
53599;DHT22;39485;45.702;11.364;2023-02-27T04:59:04;4.20;99.50
53599;DHT22;39485;45.702;11.364;2023-02-27T05:01:35;4.20;99.30
53599;DHT22;39485;45.702;11.364;2023-02-27T05:04:02;4.20;99.40
53599;DHT22;39485;45.702;11.364;2023-02-27T05:06:32;4.20;99.50
53599;DHT22;39485;45.702;11.364;2023-02-27T05:09:23;4.20;99.50
53599;DHT22;39485;45.702;11.364;2023-02-27T05:12:15;4.20;99.70
53599;DHT22;39485;45.702;11.364;2023-02-27T05:15:02;4.30;99.80
53599;DHT22;39485;45.702;11.364;2023-02-27T05:17:40;4.30;99.90
53599;DHT22;39485;45.702;11.364;2023-02-27T05:20:07;4.30;99.90
53599;DHT22;39485;45.702;11.364;2023-02-27T05:25:26;4.20;99.90
53599;DHT22;39485;45.702;11.364;2023-02-27T05:28:02;4.20;99.90
53599;DHT22;39485;45.702;11.364;2023-02-27T05:30:55;4.20;99.90
53599;DHT22;39485;45.702;11.364;2023-02-27T05:33:26;4.20;99.90
53599;DHT22;39485;45.702;11.364;2023-02-27T05:36:16;4.20;99.90
53599;DHT22;39485;45.702;11.364;2023-02-27T05:38:49;4.20;99.90
53599;DHT22;39485;45.702;11.364;2023-02-27T05:41:20;4.10;99.90
53599;DHT22;39485;45.702;11.364;2023-02-27T05:43:50;4.20;99.90
53599;DHT22;39485;45.702;11.364;2023-02-27T05:46:25;4.20;99.90
53599;DHT22;39485;45.702;11.364;2023-02-27T05:48:56;4.10;99.90
53599;DHT22;39485;45.702;11.364;2023-02-27T05:51:26;4.10;99.90
53599;DHT22;39485;45.702;11.364;2023-02-27T05:53:58;4.20;99.90
53599;DHT22;39485;45.702;11.364;2023-02-27T05:56:25;4.10;99.90
53599;DHT22;39485;45.702;11.364;2023-02-27T05:59:00;4.20;99.90
53599;DHT22;39485;45.702;11.364;2023-02-27T06:01:27;4.20;99.90
53599;DHT22;39485;45.702;11.364;2023-02-27T06:03:53;4.10;99.90
53599;DHT22;39485;45.702;11.364;2023-02-27T06:06:19;4.10;99.90
53599;DHT22;39485;45.702;11.364;2023-02-27T06:08:45;4.10;99.90
53599;DHT22;39485;45.702;11.364;2023-02-27T06:11:11;4.00;99.90
53599;DHT22;39485;45.702;11.364;2023-02-27T06:13:37;4.00;99.90
53599;DHT22;39485;45.702;11.364;2023-02-27T06:16:03;4.00;99.90
53599;DHT22;39485;45.702;11.364;2023-02-27T06:18:29;4.00;99.90
53599;DHT22;39485;45.702;11.364;2023-02-27T06:20:55;4.00;99.90
53599;DHT22;39485;45.702;11.364;2023-02-27T06:23:21;4.00;99.90
53599;DHT22;39485;45.702;11.364;2023-02-27T06:25:47;4.00;99.90
53599;DHT22;39485;45.702;11.364;2023-02-27T06:28:13;4.00;99.90
53599;DHT22;39485;45.702;11.364;2023-02-27T06:30:39;4.00;99.90
53599;DHT22;39485;45.702;11.364;2023-02-27T06:33:05;4.00;99.90
53599;DHT22;39485;45.702;11.364;2023-02-27T06:35:31;4.00;99.90
53599;DHT22;39485;45.702;11.364;2023-02-27T06:37:56;4.00;99.90
53599;DHT22;39485;45.702;11.364;2023-02-27T06:40:23;4.00;99.90
53599;DHT22;39485;45.702;11.364;2023-02-27T06:42:49;4.00;99.90
53599;DHT22;39485;45.702;11.364;2023-02-27T06:45:15;4.00;99.90
53599;DHT22;39485;45.702;11.364;2023-02-27T06:47:42;4.00;99.90
53599;DHT22;39485;45.702;11.364;2023-02-27T06:50:09;4.00;99.90
53599;DHT22;39485;45.702;11.364;2023-02-27T06:52:36;4.00;99.90
53599;DHT22;39485;45.702;11.364;2023-02-27T06:55:03;4.00;99.90
53599;DHT22;39485;45.702;11.364;2023-02-27T06:57:29;4.00;99.90
53599;DHT22;39485;45.702;11.364;2023-02-27T06:59:55;4.10;99.90
53599;DHT22;39485;45.702;11.364;2023-02-27T07:02:20;4.10;99.90
53599;DHT22;39485;45.702;11.364;2023-02-27T07:04:48;4.10;99.90
53599;DHT22;39485;45.702;11.364;2023-02-27T07:07:14;4.10;99.90
53599;DHT22;39485;45.702;11.364;2023-02-27T07:09:39;4.20;99.90
53599;DHT22;39485;45.702;11.364;2023-02-27T07:12:05;4.20;99.90
53599;DHT22;39485;45.702;11.364;2023-02-27T07:14:32;4.20;99.90
53599;DHT22;39485;45.702;11.364;2023-02-27T07:16:58;4.30;99.90
53599;DHT22;39485;45.702;11.364;2023-02-27T07:19:27;4.30;99.90
53599;DHT22;39485;45.702;11.364;2023-02-27T07:21:53;4.30;99.90
53599;DHT22;39485;45.702;11.364;2023-02-27T07:24:19;4.40;99.90
53599;DHT22;39485;45.702;11.364;2023-02-27T07:26:44;4.40;99.90
53599;DHT22;39485;45.702;11.364;2023-02-27T07:29:10;4.50;99.90
53599;DHT22;39485;45.702;11.364;2023-02-27T07:31:36;4.40;99.90
53599;DHT22;39485;45.702;11.364;2023-02-27T07:34:02;4.50;99.90
53599;DHT22;39485;45.702;11.364;2023-02-27T07:36:27;4.50;99.90
53599;DHT22;39485;45.702;11.364;2023-02-27T07:38:55;4.50;99.90
53599;DHT22;39485;45.702;11.364;2023-02-27T07:41:22;4.50;99.90
53599;DHT22;39485;45.702;11.364;2023-02-27T07:43:48;4.40;99.90
53599;DHT22;39485;45.702;11.364;2023-02-27T07:46:13;4.40;99.90
53599;DHT22;39485;45.702;11.364;2023-02-27T07:48:39;4.40;99.90
53599;DHT22;39485;45.702;11.364;2023-02-27T07:51:05;4.40;99.90
53599;DHT22;39485;45.702;11.364;2023-02-27T07:53:31;4.40;99.90
53599;DHT22;39485;45.702;11.364;2023-02-27T07:55:57;4.50;99.90
53599;DHT22;39485;45.702;11.364;2023-02-27T07:58:22;4.50;99.90
53599;DHT22;39485;45.702;11.364;2023-02-27T08:00:48;4.50;99.90
53599;DHT22;39485;45.702;11.364;2023-02-27T08:03:14;4.50;99.90
53599;DHT22;39485;45.702;11.364;2023-02-27T08:05:42;4.50;99.90
53599;DHT22;39485;45.702;11.364;2023-02-27T08:08:08;4.50;99.90
53599;DHT22;39485;45.702;11.364;2023-02-27T08:10:34;4.50;99.90
53599;DHT22;39485;45.702;11.364;2023-02-27T08:12:59;4.60;99.90
53599;DHT22;39485;45.702;11.364;2023-02-27T08:15:25;4.60;99.90
53599;DHT22;39485;45.702;11.364;2023-02-27T08:17:50;4.60;99.90
53599;DHT22;39485;45.702;11.364;2023-02-27T08:20:16;4.60;99.90
53599;DHT22;39485;45.702;11.364;2023-02-27T08:22:42;4.70;99.90
53599;DHT22;39485;45.702;11.364;2023-02-27T08:25:09;4.80;99.90
53599;DHT22;39485;45.702;11.364;2023-02-27T08:27:38;4.80;99.90
53599;DHT22;39485;45.702;11.364;2023-02-27T08:30:05;4.90;99.90
53599;DHT22;39485;45.702;11.364;2023-02-27T08:32:31;5.00;99.90
53599;DHT22;39485;45.702;11.364;2023-02-27T08:34:58;5.00;99.90
53599;DHT22;39485;45.702;11.364;2023-02-27T08:37:24;5.10;99.40
53599;DHT22;39485;45.702;11.364;2023-02-27T08:39:49;5.10;99.00
53599;DHT22;39485;45.702;11.364;2023-02-27T08:42:15;5.20;98.80
53599;DHT22;39485;45.702;11.364;2023-02-27T08:44:41;5.30;98.80
53599;DHT22;39485;45.702;11.364;2023-02-27T08:47:07;5.50;98.30
53599;DHT22;39485;45.702;11.364;2023-02-27T08:49:33;5.60;98.00
53599;DHT22;39485;45.702;11.364;2023-02-27T08:51:58;5.70;97.60
53599;DHT22;39485;45.702;11.364;2023-02-27T08:54:25;5.80;96.90
53599;DHT22;39485;45.702;11.364;2023-02-27T08:56:51;5.90;95.40
53599;DHT22;39485;45.702;11.364;2023-02-27T08:59:16;5.90;94.90
53599;DHT22;39485;45.702;11.364;2023-02-27T09:01:42;6.00;94.70
53599;DHT22;39485;45.702;11.364;2023-02-27T09:04:08;6.00;93.80
53599;DHT22;39485;45.702;11.364;2023-02-27T09:06:35;6.10;93.90
53599;DHT22;39485;45.702;11.364;2023-02-27T09:09:02;6.20;93.80
53599;DHT22;39485;45.702;11.364;2023-02-27T09:11:28;6.30;93.20
53599;DHT22;39485;45.702;11.364;2023-02-27T09:13:54;6.40;92.40
53599;DHT22;39485;45.702;11.364;2023-02-27T09:16:20;6.40;91.70
53599;DHT22;39485;45.702;11.364;2023-02-27T09:18:47;6.50;91.90
53599;DHT22;39485;45.702;11.364;2023-02-27T09:21:13;6.50;91.30
53599;DHT22;39485;45.702;11.364;2023-02-27T09:23:39;6.60;89.90
53599;DHT22;39485;45.702;11.364;2023-02-27T09:26:05;6.60;89.70
53599;DHT22;39485;45.702;11.364;2023-02-27T09:28:31;6.70;90.30
53599;DHT22;39485;45.702;11.364;2023-02-27T09:31:01;6.80;89.90
53599;DHT22;39485;45.702;11.364;2023-02-27T09:33:30;6.90;90.20
53599;DHT22;39485;45.702;11.364;2023-02-27T09:35:56;7.00;89.40
53599;DHT22;39485;45.702;11.364;2023-02-27T09:38:21;7.10;89.30
53599;DHT22;39485;45.702;11.364;2023-02-27T09:40:49;7.20;86.40
53599;DHT22;39485;45.702;11.364;2023-02-27T09:43:19;7.20;85.90
53599;DHT22;39485;45.702;11.364;2023-02-27T09:45:50;7.30;86.10
53599;DHT22;39485;45.702;11.364;2023-02-27T09:48:30;7.30;85.40
53599;DHT22;39485;45.702;11.364;2023-02-27T09:50:58;7.40;86.00
53599;DHT22;39485;45.702;11.364;2023-02-27T09:53:33;7.40;85.30
53599;DHT22;39485;45.702;11.364;2023-02-27T09:58:56;7.40;84.30
53599;DHT22;39485;45.702;11.364;2023-02-27T10:01:35;7.50;84.40
53599;DHT22;39485;45.702;11.364;2023-02-27T10:04:26;7.40;84.60
53599;DHT22;39485;45.702;11.364;2023-02-27T10:09:53;7.40;84.90
53599;DHT22;39485;45.702;11.364;2023-02-27T10:15:15;7.60;84.90
53599;DHT22;39485;45.702;11.364;2023-02-27T10:17:48;7.70;84.90
53599;DHT22;39485;45.702;11.364;2023-02-27T10:20:26;7.80;84.10
53599;DHT22;39485;45.702;11.364;2023-02-27T10:22:55;7.80;83.30
53599;DHT22;39485;45.702;11.364;2023-02-27T10:25:22;7.90;82.90
53599;DHT22;39485;45.702;11.364;2023-02-27T10:27:51;8.00;83.10
53599;DHT22;39485;45.702;11.364;2023-02-27T10:30:22;8.00;82.80
53599;DHT22;39485;45.702;11.364;2023-02-27T10:32:51;8.10;82.80
53599;DHT22;39485;45.702;11.364;2023-02-27T10:35:35;8.10;82.30
53599;DHT22;39485;45.702;11.364;2023-02-27T10:38:08;8.10;79.70
53599;DHT22;39485;45.702;11.364;2023-02-27T10:40:38;8.10;79.70
53599;DHT22;39485;45.702;11.364;2023-02-27T10:43:04;8.00;76.40
53599;DHT22;39485;45.702;11.364;2023-02-27T10:45:32;7.90;77.60
53599;DHT22;39485;45.702;11.364;2023-02-27T10:47:59;7.80;77.60
53599;DHT22;39485;45.702;11.364;2023-02-27T10:50:31;7.70;77.80
53599;DHT22;39485;45.702;11.364;2023-02-27T10:53:01;7.70;78.00
53599;DHT22;39485;45.702;11.364;2023-02-27T10:55:30;7.80;77.80
53599;DHT22;39485;45.702;11.364;2023-02-27T10:57:57;8.00;78.00
53599;DHT22;39485;45.702;11.364;2023-02-27T11:00:29;8.10;77.00
53599;DHT22;39485;45.702;11.364;2023-02-27T11:02:58;8.20;77.40
53599;DHT22;39485;45.702;11.364;2023-02-27T11:05:30;8.30;77.50
53599;DHT22;39485;45.702;11.364;2023-02-27T11:08:10;8.40;76.30
53599;DHT22;39485;45.702;11.364;2023-02-27T11:10:52;8.50;75.20
53599;DHT22;39485;45.702;11.364;2023-02-27T11:13:19;8.40;72.80
53599;DHT22;39485;45.702;11.364;2023-02-27T11:16:03;8.30;72.80
53599;DHT22;39485;45.702;11.364;2023-02-27T11:18:29;8.20;71.70
53599;DHT22;39485;45.702;11.364;2023-02-27T11:21:15;8.10;71.40
53599;DHT22;39485;45.702;11.364;2023-02-27T11:26:29;7.90;71.30
53599;DHT22;39485;45.702;11.364;2023-02-27T11:29:15;7.90;71.90
53599;DHT22;39485;45.702;11.364;2023-02-27T11:34:39;7.90;71.90
53599;DHT22;39485;45.702;11.364;2023-02-27T11:37:35;7.80;72.10
53599;DHT22;39485;45.702;11.364;2023-02-27T11:40:22;7.90;71.90
53599;DHT22;39485;45.702;11.364;2023-02-27T11:42:51;7.90;71.80
53599;DHT22;39485;45.702;11.364;2023-02-27T11:47:48;7.90;71.40
53599;DHT22;39485;45.702;11.364;2023-02-27T11:56:05;8.00;70.30
53599;DHT22;39485;45.702;11.364;2023-02-27T11:58:42;8.10;70.50
53599;DHT22;39485;45.702;11.364;2023-02-27T12:01:37;8.20;71.00
53599;DHT22;39485;45.702;11.364;2023-02-27T12:04:16;8.30;70.50
53599;DHT22;39485;45.702;11.364;2023-02-27T12:09:34;8.40;69.40
53599;DHT22;39485;45.702;11.364;2023-02-27T12:12:06;8.50;68.90
53599;DHT22;39485;45.702;11.364;2023-02-27T12:17:51;8.80;67.40
53599;DHT22;39485;45.702;11.364;2023-02-27T12:20:36;8.80;67.40
53599;DHT22;39485;45.702;11.364;2023-02-27T12:23:11;8.90;66.20
53599;DHT22;39485;45.702;11.364;2023-02-27T12:25:43;8.90;65.70
53599;DHT22;39485;45.702;11.364;2023-02-27T12:28:13;8.90;65.70
53599;DHT22;39485;45.702;11.364;2023-02-27T12:36:14;9.10;65.40
53599;DHT22;39485;45.702;11.364;2023-02-27T12:38:40;9.10;65.60
53599;DHT22;39485;45.702;11.364;2023-02-27T12:47:09;9.20;64.70
53599;DHT22;39485;45.702;11.364;2023-02-27T12:49:45;9.20;64.60
53599;DHT22;39485;45.702;11.364;2023-02-27T13:00:18;9.30;63.80
53599;DHT22;39485;45.702;11.364;2023-02-27T13:05:50;9.30;63.70
53599;DHT22;39485;45.702;11.364;2023-02-27T13:11:16;9.40;63.00
53599;DHT22;39485;45.702;11.364;2023-02-27T13:13:55;9.40;62.90
53599;DHT22;39485;45.702;11.364;2023-02-27T13:16:40;9.40;63.10
53599;DHT22;39485;45.702;11.364;2023-02-27T13:21:53;9.40;61.60
53599;DHT22;39485;45.702;11.364;2023-02-27T13:24:24;9.40;61.80
53599;DHT22;39485;45.702;11.364;2023-02-27T13:27:19;9.40;62.00
53599;DHT22;39485;45.702;11.364;2023-02-27T13:30:21;9.30;62.30
53599;DHT22;39485;45.702;11.364;2023-02-27T13:35:47;9.30;63.00
53599;DHT22;39485;45.702;11.364;2023-02-27T13:40:57;9.10;63.30
53599;DHT22;39485;45.702;11.364;2023-02-27T13:43:42;9.00;63.50
53599;DHT22;39485;45.702;11.364;2023-02-27T13:46:28;8.90;63.50
53599;DHT22;39485;45.702;11.364;2023-02-27T13:48:54;8.80;63.30
53599;DHT22;39485;45.702;11.364;2023-02-27T13:51:49;8.70;63.40
53599;DHT22;39485;45.702;11.364;2023-02-27T13:54:19;8.60;63.40
53599;DHT22;39485;45.702;11.364;2023-02-27T14:04:27;8.30;64.40
53599;DHT22;39485;45.702;11.364;2023-02-27T14:07:12;8.30;64.60
53599;DHT22;39485;45.702;11.364;2023-02-27T14:09:41;8.30;64.90
53599;DHT22;39485;45.702;11.364;2023-02-27T14:12:30;8.20;65.10
53599;DHT22;39485;45.702;11.364;2023-02-27T14:14:58;8.20;64.70
53599;DHT22;39485;45.702;11.364;2023-02-27T14:22:38;8.10;65.40
53599;DHT22;39485;45.702;11.364;2023-02-27T14:25:18;8.10;65.80
53599;DHT22;39485;45.702;11.364;2023-02-27T14:27:55;8.10;65.70
53599;DHT22;39485;45.702;11.364;2023-02-27T14:30:40;8.10;65.50
53599;DHT22;39485;45.702;11.364;2023-02-27T14:33:21;8.10;65.50
53599;DHT22;39485;45.702;11.364;2023-02-27T14:36:01;8.00;65.60
53599;DHT22;39485;45.702;11.364;2023-02-27T14:38:28;8.00;65.90
53599;DHT22;39485;45.702;11.364;2023-02-27T14:41:14;8.00;66.30
53599;DHT22;39485;45.702;11.364;2023-02-27T14:43:47;8.00;66.50
53599;DHT22;39485;45.702;11.364;2023-02-27T14:46:29;8.00;66.70
53599;DHT22;39485;45.702;11.364;2023-02-27T14:49:06;8.00;66.60
53599;DHT22;39485;45.702;11.364;2023-02-27T14:51:40;7.90;66.70
53599;DHT22;39485;45.702;11.364;2023-02-27T14:54:15;7.80;67.00
53599;DHT22;39485;45.702;11.364;2023-02-27T14:56:55;7.80;67.20
53599;DHT22;39485;45.702;11.364;2023-02-27T14:59:27;7.70;67.30
53599;DHT22;39485;45.702;11.364;2023-02-27T15:01:55;7.70;67.70
53599;DHT22;39485;45.702;11.364;2023-02-27T15:04:23;7.70;67.60
53599;DHT22;39485;45.702;11.364;2023-02-27T15:06:52;7.60;67.80
53599;DHT22;39485;45.702;11.364;2023-02-27T15:11:56;7.50;67.80
53599;DHT22;39485;45.702;11.364;2023-02-27T15:14:32;7.50;68.10
53599;DHT22;39485;45.702;11.364;2023-02-27T15:16:59;7.40;68.20
53599;DHT22;39485;45.702;11.364;2023-02-27T15:19:26;7.40;68.50
